createdAt,value
2018-08-07T00:02:12.861Z,99.44
2018-08-07T00:04:44.696Z,97.88
2018-08-07T00:07:18.453Z,97.08
2018-08-07T00:09:51.225Z,96.23
2018-08-07T00:12:22.505Z,95.12
2018-08-07T00:14:53.836Z,95.62
2018-08-07T00:17:26.181Z,95.63
2018-08-07T00:19:57.896Z,95.04
2018-08-07T00:22:29.230Z,93.89
2018-08-07T00:25:00.419Z,95.28
2018-08-07T00:27:33.851Z,92.61
2018-08-07T00:30:05.900Z,91.39
2018-08-07T00:32:37.396Z,90.23
2018-08-07T00:35:13.822Z,90.13
2018-08-07T00:37:45.124Z,91.38
2018-08-07T00:40:19.215Z,90.59
2018-08-07T00:42:50.279Z,90.31
2018-08-07T00:45:26.616Z,90.50
2018-08-07T00:47:57.930Z,89.05
2018-08-07T00:50:29.494Z,88.95
2018-08-07T00:53:00.844Z,88.65
2018-08-07T00:55:39.928Z,84.12
2018-08-07T00:58:11.780Z,81.90
2018-08-07T01:00:42.809Z,80.55
2018-08-07T01:03:14.488Z,79.25
2018-08-07T01:05:45.868Z,78.04
2018-08-07T01:08:18.143Z,77.47
2018-08-07T01:10:49.883Z,77.00
2018-08-07T01:13:22.397Z,75.99
2018-08-07T01:15:53.633Z,73.98
2018-08-07T01:18:25.126Z,73.01
2018-08-07T01:20:56.324Z,72.03
2018-08-07T01:23:29.752Z,72.68
2018-08-07T01:26:02.483Z,71.54
2018-08-07T01:28:33.633Z,72.62
2018-08-07T01:31:08.736Z,70.51
2018-08-07T01:33:39.797Z,67.88
2018-08-07T01:36:10.889Z,66.62
2018-08-07T01:38:43.169Z,64.64
2018-08-07T01:41:14.236Z,64.09
2018-08-07T01:43:45.456Z,62.47
2018-08-07T01:46:27.401Z,63.06
2018-08-07T01:48:58.755Z,63.95
2018-08-07T01:51:30.592Z,61.12
2018-08-07T01:54:02.851Z,60.17
2018-08-07T01:56:34.645Z,60.33
2018-08-07T01:59:06.850Z,59.63
2018-08-07T02:01:38.765Z,59.22
2018-08-07T02:04:09.811Z,60.03
2018-08-07T02:06:41.115Z,61.26
2018-08-07T02:09:12.614Z,59.91
2018-08-07T02:11:44.646Z,59.31
2018-08-07T02:14:17.584Z,62.29
2018-08-07T02:16:50.685Z,63.05
2018-08-07T02:19:21.824Z,64.82
2018-08-07T02:21:53.841Z,65.78
2018-08-07T02:24:30.806Z,65.46
2018-08-07T02:27:01.990Z,63.05
2018-08-07T02:29:33.019Z,69.08
2018-08-07T02:32:04.756Z,69.42
2018-08-07T02:34:39.775Z,72.19
2018-08-07T02:37:11.505Z,71.73
2018-08-07T02:39:42.814Z,70.96
2018-08-07T02:42:13.876Z,71.61
2018-08-07T02:44:46.094Z,70.71
2018-08-07T02:47:17.596Z,71.79
2018-08-07T02:49:48.804Z,70.79
2018-08-07T02:52:26.160Z,70.04
2018-08-07T02:54:57.107Z,60.91
2018-08-07T02:57:28.267Z,61.73
2018-08-07T02:59:59.963Z,63.39
2018-08-07T03:02:32.093Z,66.44
2018-08-07T03:05:03.803Z,65.21
2018-08-07T03:07:36.305Z,68.38
2018-08-07T03:10:08.579Z,68.15
2018-08-07T03:12:41.096Z,64.20
2018-08-07T03:15:15.129Z,67.87
2018-08-07T03:17:48.064Z,64.73
2018-08-07T03:20:19.588Z,58.29
2018-08-07T03:22:51.743Z,62.33
2018-08-07T03:25:23.131Z,59.07
2018-08-07T03:27:55.752Z,56.37
2018-08-07T03:30:26.957Z,54.99
2018-08-07T03:32:58.132Z,54.86
2018-08-07T03:35:29.535Z,51.53
2018-08-07T03:38:00.700Z,49.78
2018-08-07T03:40:31.715Z,46.14
2018-08-07T03:43:03.174Z,44.31
2018-08-07T03:45:34.462Z,43.71
2018-08-07T03:48:11.496Z,42.43
2018-08-07T03:50:43.091Z,40.75
2018-08-07T03:53:14.580Z,39.45
2018-08-07T03:55:45.850Z,38.41
2018-08-07T03:58:19.616Z,38.39
2018-08-07T04:00:51.091Z,38.36
2018-08-07T04:03:22.255Z,36.80
2018-08-07T04:05:53.874Z,37.29
2018-08-07T04:08:25.271Z,33.35
2018-08-07T04:10:57.413Z,36.34
2018-08-07T04:13:28.759Z,35.20
2018-08-07T04:15:59.909Z,34.54
2018-08-07T04:18:31.930Z,31.23
2018-08-07T04:21:03.285Z,30.33
2018-08-07T04:23:35.260Z,29.97
2018-08-07T04:26:08.272Z,25.79
2018-08-07T04:28:43.783Z,25.67
2018-08-07T04:31:15.214Z,29.01
2018-08-07T04:33:47.559Z,28.81
2018-08-07T04:36:18.733Z,27.55
2018-08-07T04:38:51.907Z,26.45
2018-08-07T04:41:23.139Z,27.42
2018-08-07T04:43:55.941Z,24.65
2018-08-07T04:46:27.742Z,22.77
2018-08-07T04:49:02.581Z,22.51
2018-08-07T04:51:33.738Z,22.78
2018-08-07T04:54:06.551Z,22.35
2018-08-07T04:56:38.403Z,22.60
2018-08-07T04:59:13.129Z,23.86
2018-08-07T05:01:44.573Z,23.00
2018-08-07T05:04:16.813Z,22.66
2018-08-07T05:06:48.406Z,22.50
2018-08-07T05:09:21.027Z,21.59
2018-08-07T05:11:52.661Z,22.45
2018-08-07T05:14:23.802Z,23.00
2018-08-07T05:16:55.146Z,22.59
2018-08-07T05:19:26.276Z,22.10
2018-08-07T05:21:58.610Z,23.29
2018-08-07T05:24:30.580Z,22.72
2018-08-07T05:27:02.675Z,21.78
2018-08-07T05:29:34.596Z,20.53
2018-08-07T05:32:05.899Z,19.90
2018-08-07T05:34:36.845Z,20.06
2018-08-07T05:37:09.721Z,19.50
2018-08-07T05:39:43.101Z,20.05
2018-08-07T05:42:16.172Z,19.36
2018-08-07T05:44:47.547Z,19.20
2018-08-07T05:47:18.586Z,19.66
2018-08-07T05:49:50.671Z,19.80
2018-08-07T05:52:22.148Z,19.88
2018-08-07T05:54:53.596Z,20.20
2018-08-07T05:57:25.266Z,19.85
2018-08-07T05:59:57.371Z,19.16
2018-08-07T06:02:28.593Z,18.49
2018-08-07T06:05:04.235Z,18.31
2018-08-07T06:07:37.678Z,19.37
2018-08-07T06:10:10.620Z,18.88
2018-08-07T06:12:41.989Z,20.92
2018-08-07T06:15:15.382Z,20.48
2018-08-07T06:17:47.775Z,20.65
2018-08-07T06:20:20.124Z,19.07
2018-08-07T06:22:51.988Z,18.25
2018-08-07T06:25:25.840Z,18.03
2018-08-07T06:27:57.767Z,18.02
2018-08-07T06:30:29.329Z,16.72
2018-08-07T06:33:00.647Z,17.10
2018-08-07T06:35:36.029Z,17.18
2018-08-07T06:38:09.909Z,16.90
2018-08-07T06:40:41.965Z,16.85
2018-08-07T06:43:13.963Z,16.35
2018-08-07T06:45:49.148Z,16.35
2018-08-07T06:48:20.378Z,17.96
2018-08-07T06:50:52.664Z,17.94
2018-08-07T06:53:24.364Z,17.35
2018-08-07T06:55:56.637Z,16.51
2018-08-07T06:58:28.011Z,16.71
2018-08-07T07:01:02.002Z,16.97
2018-08-07T07:03:35.232Z,16.73
2018-08-07T07:06:07.495Z,16.61
2018-08-07T07:08:38.775Z,17.33
2018-08-07T07:11:10.328Z,17.14
2018-08-07T07:13:41.640Z,16.23
2018-08-07T07:16:13.022Z,17.98
2018-08-07T07:18:44.354Z,16.93
2018-08-07T07:21:15.565Z,15.90
2018-08-07T07:23:46.715Z,16.86
2018-08-07T07:26:19.529Z,17.08
2018-08-07T07:28:52.021Z,19.54
2018-08-07T07:31:23.214Z,20.45
2018-08-07T07:34:00.768Z,20.48
2018-08-07T07:36:32.370Z,22.84
2018-08-07T07:39:04.706Z,22.06
2018-08-07T07:41:44.265Z,22.47
2018-08-07T07:44:15.518Z,22.86
2018-08-07T07:46:46.932Z,26.49
2018-08-07T07:49:19.549Z,25.56
2018-08-07T07:51:52.680Z,26.65
2018-08-07T07:54:23.909Z,27.27
2018-08-07T07:56:57.208Z,26.04
2018-08-07T07:59:28.448Z,27.37
2018-08-07T08:02:00.125Z,28.12
2018-08-07T08:04:31.358Z,28.75
2018-08-07T08:07:03.029Z,29.72
2018-08-07T08:09:34.184Z,29.73
2018-08-07T08:12:06.173Z,33.83
2018-08-07T08:14:37.311Z,34.67
2018-08-07T08:17:08.582Z,34.01
2018-08-07T08:19:40.070Z,35.11
2018-08-07T08:22:13.122Z,35.55
2018-08-07T08:24:44.251Z,36.82
2018-08-07T08:27:15.724Z,36.10
2018-08-07T08:29:48.290Z,35.20
2018-08-07T08:32:20.733Z,36.16
2018-08-07T08:34:52.202Z,36.12
2018-08-07T08:37:23.937Z,36.82
2018-08-07T08:40:01.066Z,38.98
2018-08-07T08:42:33.662Z,38.17
2018-08-07T08:45:05.125Z,39.17
2018-08-07T08:47:37.185Z,38.11
2018-08-07T08:50:15.833Z,37.19
2018-08-07T08:52:49.255Z,38.32
2018-08-07T08:55:21.118Z,36.89
2018-08-07T08:57:53.076Z,37.85
2018-08-07T09:00:26.628Z,37.17
2018-08-07T09:02:59.254Z,35.26
2018-08-07T09:05:31.467Z,36.03
2018-08-07T09:08:03.182Z,36.23
2018-08-07T09:10:34.683Z,36.69
2018-08-07T09:13:05.654Z,38.83
2018-08-07T09:15:41.485Z,38.35
2018-08-07T09:18:16.986Z,38.00
2018-08-07T09:20:48.177Z,37.70
2018-08-07T09:23:21.276Z,36.96
2018-08-07T09:25:52.763Z,37.65
2018-08-07T09:28:24.789Z,37.62
2018-08-07T09:30:56.300Z,39.14
2018-08-07T09:33:28.058Z,37.48
2018-08-07T09:35:59.589Z,38.73
2018-08-07T09:38:32.505Z,39.30
2018-08-07T09:41:04.877Z,39.76
2018-08-07T09:43:36.288Z,39.61
2018-08-07T09:46:11.622Z,40.60
2018-08-07T09:48:43.495Z,40.24
2018-08-07T09:51:14.936Z,38.23
2018-08-07T09:53:46.122Z,39.10
2018-08-07T09:56:17.537Z,38.87
2018-08-07T09:58:48.817Z,37.09
2018-08-07T10:01:25.459Z,37.87
2018-08-07T10:03:58.166Z,35.97
2018-08-07T10:06:30.743Z,39.03
2018-08-07T10:09:02.510Z,40.09
2018-08-07T10:11:33.662Z,39.11
2018-08-07T10:14:06.894Z,40.12
2018-08-07T10:16:38.463Z,39.39
2018-08-07T10:19:10.047Z,40.14
2018-08-07T10:21:41.520Z,40.13
2018-08-07T10:24:12.893Z,41.02
2018-08-07T10:26:44.112Z,38.65
2018-08-07T10:29:15.815Z,39.17
2018-08-07T10:31:47.942Z,40.87
2018-08-07T10:34:19.133Z,40.22
2018-08-07T10:36:50.735Z,39.66
2018-08-07T10:39:23.045Z,39.33
2018-08-07T10:41:54.775Z,38.77
2018-08-07T10:44:26.731Z,41.85
2018-08-07T10:46:58.271Z,41.58
2018-08-07T10:49:29.534Z,39.85
2018-08-07T10:52:01.095Z,41.90
2018-08-07T10:54:32.662Z,42.02
2018-08-07T10:57:04.716Z,41.81
2018-08-07T10:59:36.960Z,42.78
2018-08-07T11:02:09.465Z,42.03
2018-08-07T11:04:40.861Z,41.66
2018-08-07T11:07:12.850Z,41.64
2018-08-07T11:09:44.777Z,42.60
2018-08-07T11:12:16.200Z,42.99
2018-08-07T11:14:48.777Z,43.75
2018-08-07T11:17:20.809Z,43.50
2018-08-07T11:19:52.395Z,41.75
2018-08-07T11:22:23.803Z,43.82
2018-08-07T11:24:57.047Z,44.42
2018-08-07T11:27:29.908Z,43.26
2018-08-07T11:30:03.409Z,43.60
2018-08-07T11:32:37.161Z,43.67
2018-08-07T11:35:11.583Z,43.44
2018-08-07T11:37:44.106Z,43.73
2018-08-07T11:40:18.014Z,44.81
2018-08-07T11:42:52.882Z,43.44
2018-08-07T11:45:26.990Z,45.58
2018-08-07T11:47:59.128Z,45.84
2018-08-07T11:50:32.343Z,45.19
2018-08-07T11:53:03.921Z,44.18
2018-08-07T11:55:35.094Z,45.04
2018-08-07T11:58:07.127Z,44.40
2018-08-07T12:00:39.322Z,43.28
2018-08-07T12:03:11.720Z,43.14
2018-08-07T12:05:43.571Z,42.30
2018-08-07T12:08:15.523Z,42.98
2018-08-07T12:10:46.945Z,43.20
2018-08-07T12:13:18.317Z,43.45
2018-08-07T12:15:49.422Z,41.69
2018-08-07T12:18:20.581Z,41.21
2018-08-07T12:20:54.108Z,40.57
2018-08-07T12:23:28.930Z,40.09
2018-08-07T12:26:00.226Z,40.85
2018-08-07T12:28:32.009Z,41.34
2018-08-07T12:31:03.817Z,42.28
2018-08-07T12:33:35.247Z,45.22
2018-08-07T12:36:07.023Z,51.13
2018-08-07T12:38:39.818Z,57.17
2018-08-07T12:41:13.702Z,58.75
2018-08-07T12:43:45.047Z,57.90
2018-08-07T12:46:17.051Z,58.00
2018-08-07T12:48:48.156Z,60.08
2018-08-07T12:51:20.214Z,60.49
2018-08-07T12:53:52.504Z,58.91
2018-08-07T12:56:23.799Z,59.18
2018-08-07T12:58:55.004Z,58.56
2018-08-07T13:01:26.478Z,58.47
2018-08-07T13:03:58.285Z,55.22
2018-08-07T13:06:29.611Z,55.53
2018-08-07T13:09:01.037Z,56.78
2018-08-07T13:11:32.565Z,58.41
2018-08-07T13:14:03.703Z,58.19
2018-08-07T13:16:36.828Z,59.55
2018-08-07T13:19:08.045Z,59.37
2018-08-07T13:21:39.476Z,59.98
2018-08-07T13:24:11.042Z,60.10
2018-08-07T13:26:42.508Z,60.17
2018-08-07T13:29:14.339Z,60.24
2018-08-07T13:31:45.512Z,61.13
2018-08-07T13:34:16.639Z,59.75
2018-08-07T13:36:47.979Z,60.46
2018-08-07T13:39:19.900Z,59.51
2018-08-07T13:41:51.607Z,60.48
2018-08-07T13:44:22.751Z,60.48
2018-08-07T13:46:55.056Z,59.00
2018-08-07T13:49:27.032Z,58.27
2018-08-07T13:51:59.515Z,57.46
2018-08-07T13:54:30.926Z,58.13
2018-08-07T13:57:02.293Z,57.62
2018-08-07T13:59:34.154Z,58.73
2018-08-07T14:02:06.616Z,59.25
2018-08-07T14:04:38.055Z,58.10
2018-08-07T14:07:09.636Z,57.81
2018-08-07T14:09:41.490Z,58.40
2018-08-07T14:12:12.881Z,58.24
2018-08-07T14:14:44.400Z,57.51
2018-08-07T14:17:15.700Z,57.27
2018-08-07T14:19:46.992Z,57.54
2018-08-07T14:22:18.352Z,56.95
2018-08-07T14:24:49.665Z,56.12
2018-08-07T14:27:23.422Z,56.25
2018-08-07T14:29:54.497Z,56.54
2018-08-07T14:32:26.366Z,57.48
2018-08-07T14:34:58.125Z,58.44
2018-08-07T14:37:30.244Z,59.47
2018-08-07T14:40:01.405Z,58.83
2018-08-07T14:42:32.491Z,58.01
2018-08-07T14:45:03.826Z,58.57
2018-08-07T14:47:35.455Z,58.46
2018-08-07T14:50:08.943Z,59.59
2018-08-07T14:52:41.721Z,59.33
2018-08-07T14:55:13.359Z,60.12
2018-08-07T14:57:44.764Z,60.48
2018-08-07T15:00:18.441Z,60.55
2018-08-07T15:02:49.998Z,60.92
2018-08-07T15:05:21.650Z,60.61
2018-08-07T15:07:54.023Z,60.42
2018-08-07T15:10:26.848Z,61.86
2018-08-07T15:13:00.302Z,60.38
2018-08-07T15:15:33.641Z,60.59
2018-08-07T15:18:05.669Z,60.80
2018-08-07T15:20:38.416Z,60.52
2018-08-07T15:23:10.758Z,59.53
2018-08-07T15:25:42.696Z,60.93
2018-08-07T15:28:14.009Z,60.33
2018-08-07T15:30:45.415Z,60.03
2018-08-07T15:33:16.796Z,59.61
2018-08-07T15:35:48.026Z,59.97
2018-08-07T15:38:20.081Z,59.32
2018-08-07T15:40:52.187Z,58.87
2018-08-07T15:43:24.062Z,60.05
2018-08-07T15:45:55.372Z,59.46
2018-08-07T15:48:28.171Z,58.62
2018-08-07T15:50:59.883Z,59.32
2018-08-07T15:53:32.076Z,62.30
2018-08-07T15:56:05.130Z,62.51
2018-08-07T15:58:36.498Z,64.73
2018-08-07T16:01:09.478Z,63.59
2018-08-07T16:03:44.453Z,65.16
2018-08-07T16:06:15.932Z,65.66
2018-08-07T16:08:47.047Z,66.38
2018-08-07T16:11:18.565Z,66.20
2018-08-07T16:13:50.605Z,67.38
2018-08-07T16:16:22.162Z,69.53
2018-08-07T16:18:56.089Z,70.08
2018-08-07T16:21:27.735Z,70.09
2018-08-07T16:23:59.773Z,70.56
2018-08-07T16:26:32.034Z,71.33
2018-08-07T16:29:03.646Z,71.78
2018-08-07T16:31:36.850Z,71.57
2018-08-07T16:34:08.733Z,72.13
2018-08-07T16:36:40.461Z,71.58
2018-08-07T16:39:13.989Z,71.97
2018-08-07T16:41:45.659Z,70.64
2018-08-07T16:44:16.941Z,71.76
2018-08-07T16:46:50.518Z,72.73
2018-08-07T16:49:22.110Z,74.05
2018-08-07T16:51:53.340Z,74.52
2018-08-07T16:54:25.795Z,75.28
2018-08-07T16:56:57.370Z,76.08
2018-08-07T16:59:29.062Z,75.55
2018-08-07T17:02:01.032Z,75.37
2018-08-07T17:04:35.410Z,75.33
2018-08-07T17:07:06.474Z,74.66
2018-08-07T17:09:37.844Z,74.20
2018-08-07T17:12:09.328Z,73.84
2018-08-07T17:14:42.313Z,74.01
2018-08-07T17:17:13.778Z,73.92
2018-08-07T17:19:45.152Z,73.31
2018-08-07T17:22:17.689Z,74.42
2018-08-07T17:24:49.050Z,74.37
2018-08-07T17:27:20.362Z,74.13
2018-08-07T17:29:52.963Z,74.63
2018-08-07T17:32:26.381Z,74.11
2018-08-07T17:34:58.242Z,74.50
2018-08-07T17:37:29.682Z,74.65
2018-08-07T17:40:01.297Z,75.87
2018-08-07T17:42:32.727Z,76.30
2018-08-07T17:45:04.460Z,75.83
2018-08-07T17:47:36.407Z,77.04
2018-08-07T17:50:11.483Z,77.10
2018-08-07T17:52:43.077Z,77.05
2018-08-07T17:55:15.440Z,76.91
2018-08-07T17:57:47.049Z,78.79
2018-08-07T18:00:20.022Z,80.31
2018-08-07T18:02:51.556Z,82.43
2018-08-07T18:05:24.428Z,82.51
2018-08-07T18:07:58.250Z,82.17
2018-08-07T18:10:33.780Z,82.83
2018-08-07T18:13:05.190Z,83.15
2018-08-07T18:15:36.905Z,83.15
2018-08-07T18:18:08.757Z,82.54
2018-08-07T18:20:40.525Z,82.10
2018-08-07T18:23:12.979Z,80.45
2018-08-07T18:25:44.179Z,80.46
2018-08-07T18:28:15.609Z,81.39
2018-08-07T18:30:47.435Z,81.21
2018-08-07T18:33:20.245Z,82.95
2018-08-07T18:35:51.853Z,82.28
2018-08-07T18:38:23.490Z,82.48
2018-08-07T18:40:55.242Z,82.98
2018-08-07T18:43:26.693Z,83.88
2018-08-07T18:45:58.407Z,84.43
2018-08-07T18:48:30.118Z,83.60
2018-08-07T18:51:02.770Z,82.68
2018-08-07T18:53:34.247Z,83.04
2018-08-07T18:56:08.529Z,83.92
2018-08-07T18:58:40.234Z,83.92
2018-08-07T19:01:11.640Z,83.63
2018-08-07T19:03:44.410Z,85.63
2018-08-07T19:06:19.240Z,86.58
2018-08-07T19:08:52.483Z,85.49
2018-08-07T19:11:24.281Z,84.76
2018-08-07T19:13:58.651Z,86.01
2018-08-07T19:16:32.507Z,86.77
2018-08-07T19:19:14.283Z,88.25
2018-08-07T19:21:50.351Z,88.40
2018-08-07T19:24:23.289Z,88.06
2018-08-07T19:26:56.020Z,88.19
2018-08-07T19:29:28.720Z,88.02
2018-08-07T19:32:00.616Z,88.08
2018-08-07T19:34:32.416Z,86.84
2018-08-07T19:37:04.179Z,85.30
2018-08-07T19:39:35.845Z,83.54
2018-08-07T19:42:07.617Z,84.05
2018-08-07T19:44:38.849Z,85.42
2018-08-07T19:47:12.950Z,86.63
2018-08-07T19:49:45.626Z,86.21
2018-08-07T19:52:18.090Z,83.66
2018-08-07T19:54:49.653Z,83.44
2018-08-07T19:57:23.390Z,81.45
2018-08-07T19:59:55.646Z,81.93
2018-08-07T20:02:30.167Z,82.73
2018-08-07T20:05:02.175Z,84.07
2018-08-07T20:07:37.066Z,86.43
2018-08-07T20:10:11.112Z,87.06
2018-08-07T20:12:43.644Z,87.69
2018-08-07T20:15:19.776Z,88.53
2018-08-07T20:17:51.523Z,88.58
2018-08-07T20:20:23.541Z,88.68
2018-08-07T20:22:56.655Z,88.38
2018-08-07T20:25:28.446Z,88.67
2018-08-07T20:28:00.831Z,89.04
2018-08-07T20:30:33.406Z,87.20
2018-08-07T20:33:04.876Z,84.89
2018-08-07T20:35:37.034Z,85.44
2018-08-07T20:38:08.960Z,85.92
2018-08-07T20:40:41.911Z,83.77
2018-08-07T20:43:14.105Z,84.14
2018-08-07T20:45:48.361Z,86.50
2018-08-07T20:48:20.497Z,87.98
2018-08-07T20:50:52.282Z,89.24
2018-08-07T20:53:23.692Z,89.87
2018-08-07T20:55:55.369Z,90.39
2018-08-07T20:58:26.691Z,89.60
2018-08-07T21:00:59.224Z,87.71
2018-08-07T21:03:30.633Z,88.47
2018-08-07T21:06:02.218Z,89.82
2018-08-07T21:08:33.598Z,88.39
2018-08-07T21:11:04.919Z,88.67
2018-08-07T21:13:37.005Z,87.81
2018-08-07T21:16:08.485Z,85.22
2018-08-07T21:18:40.759Z,85.55
2018-08-07T21:21:11.851Z,85.59
2018-08-07T21:23:44.682Z,88.19
2018-08-07T21:26:16.776Z,88.24
2018-08-07T21:28:48.481Z,87.29
2018-08-07T21:31:19.688Z,87.98
2018-08-07T21:33:50.974Z,88.40
2018-08-07T21:36:22.673Z,87.22
2018-08-07T21:38:54.178Z,87.61
2018-08-07T21:41:26.345Z,84.42
2018-08-07T21:43:57.797Z,83.76
2018-08-07T21:46:29.183Z,83.09
2018-08-07T21:49:00.337Z,84.69
2018-08-07T21:51:31.650Z,83.68
2018-08-07T21:54:04.676Z,84.94
2018-08-07T21:56:36.109Z,85.34
2018-08-07T21:59:08.545Z,85.61
2018-08-07T22:01:40.109Z,84.16
2018-08-07T22:04:11.475Z,81.37
2018-08-07T22:06:43.763Z,80.89
2018-08-07T22:09:16.233Z,81.44
2018-08-07T22:11:47.419Z,80.55
2018-08-07T22:14:20.085Z,80.51
2018-08-07T22:16:56.534Z,80.59
2018-08-07T22:19:27.880Z,80.47
2018-08-07T22:21:59.228Z,81.42
2018-08-07T22:24:31.100Z,80.61
2018-08-07T22:27:03.177Z,80.83
2018-08-07T22:29:35.435Z,81.49
2018-08-07T22:32:06.784Z,82.03
2018-08-07T22:34:38.086Z,81.02
2018-08-07T22:37:09.157Z,81.65
2018-08-07T22:39:40.336Z,81.53
2018-08-07T22:42:12.959Z,81.61
2018-08-07T22:44:44.181Z,81.70
2018-08-07T22:47:16.804Z,81.09
2018-08-07T22:49:48.963Z,81.00
2018-08-07T22:52:20.331Z,80.27
2018-08-07T22:54:52.918Z,81.15
2018-08-07T22:57:24.127Z,80.15
2018-08-07T22:59:56.490Z,79.89
2018-08-07T23:02:28.531Z,80.60
2018-08-07T23:04:59.880Z,80.19
2018-08-07T23:07:31.148Z,81.38
2018-08-07T23:10:02.958Z,81.17
2018-08-07T23:12:34.090Z,82.28
2018-08-07T23:15:06.759Z,82.59
2018-08-07T23:17:38.347Z,82.50
2018-08-07T23:20:10.436Z,82.38
2018-08-07T23:22:41.659Z,82.78
2018-08-07T23:25:14.540Z,81.85
2018-08-07T23:27:45.816Z,82.03
2018-08-07T23:30:19.059Z,81.31
2018-08-07T23:32:50.505Z,83.13
2018-08-07T23:35:24.548Z,82.60
2018-08-07T23:37:55.920Z,83.53
2018-08-07T23:40:27.491Z,84.09
2018-08-07T23:42:59.586Z,84.48
2018-08-07T23:45:31.069Z,85.26
2018-08-07T23:48:02.155Z,85.05
2018-08-07T23:50:33.343Z,84.82
2018-08-07T23:53:04.478Z,85.00
2018-08-07T23:55:36.480Z,84.58
2018-08-07T23:58:07.664Z,84.30
